This is the latest recevied weather packets stored in our database for station/object OK2ZI. If no packets are shown the sender has not sent any weather packets the latest 10 day(s).
| Time | Temp. | Humidity | Pressure | Rain* | Wind** | Luminosity | Snow |
|---|---|---|---|---|---|---|---|
| 1777579687 | 2.78° C | 64% | 1025 hPa | 0 mm | - | - | - |
| 1777579218 | 4.44° C | 58% | 1025 hPa | 0 mm | - | - | - |
| 1777577766 | 4.44° C | 55% | 1025 hPa | 0 mm | - | - | - |
| 1777577527 | 4.44° C | 56% | 1025 hPa | 0 mm | - | - | - |
| 1777577312 | 3.89° C | 56% | 1025 hPa | 0 mm | - | - | - |
| 1777574767 | 5.56° C | 51% | 1024 hPa | 0 mm | - | - | - |
| 1777574167 | 6.67° C | 49% | 1024 hPa | 0 mm | - | - | - |
| 1777572966 | 8.33° C | 42% | 1024 hPa | 0 mm | - | - | - |
| 1777572017 | 10° C | 38% | 1024 hPa | 0 mm | - | - | - |
| 1777570687 | 11.11° C | 32% | 1024 hPa | 0 mm | - | - | - |
| 1777570087 | 11.67° C | 31% | 1024 hPa | 0 mm | - | - | - |
| 1777569367 | 11.67° C | 30% | 1024 hPa | 0 mm | - | - | - |
| 1777568287 | 12.22° C | 28% | 1024 hPa | 0 mm | - | - | - |
| 1777567566 | 12.22° C | 28% | 1024 hPa | 0 mm | - | - | - |
| 1777566727 | 12.22° C | 27% | 1024 hPa | 0 mm | - | - | - |
| 1777566616 | 12.22° C | 29% | 1024 hPa | 0 mm | - | - | - |
| 1777566487 | 12.22° C | 27% | 1024 hPa | 0 mm | - | - | - |
| 1777565766 | 12.78° C | 29% | 1024 hPa | 0 mm | - | - | - |
| 1777565411 | 12.78° C | 28% | 1024 hPa | 0 mm | - | - | - |
| 1777564927 | 12.78° C | 28% | 1024 hPa | 0 mm | - | - | - |
| 1777564821 | 12.78° C | 29% | 1024 hPa | 0 mm | - | - | - |
| 1777563848 | 13.33° C | 29% | 1024 hPa | 0 mm | - | - | - |
| 1777563367 | 12.78° C | 28% | 1024 hPa | 0 mm | - | - | - |
| 1777562531 | 12.78° C | 30% | 1024 hPa | 0 mm | - | - | - |
| 1777562045 | 12.78° C | 26% | 1024 hPa | 0 mm | - | - | - |
* Rain latest hour (hover to see other rain measurements)
** Current wind speed in m/s (hover to see current wind gust speed)